sensor_id;sensor_type;location;lat;lon;timestamp;pressure;altitude;pressure_sealevel;temperature;humidity
28008;BME280;15333;50.010;20.020;2023-01-28T00:00:57;99228.50;;;-1.37;90.09
28008;BME280;15333;50.010;20.020;2023-01-28T00:04:00;99221.53;;;-1.39;90.77
28008;BME280;15333;50.010;20.020;2023-01-28T00:07:01;99231.13;;;-1.38;90.72
28008;BME280;15333;50.010;20.020;2023-01-28T00:10:02;99226.66;;;-1.35;91.33
28008;BME280;15333;50.010;20.020;2023-01-28T00:13:03;99224.88;;;-1.33;90.91
28008;BME280;15333;50.010;20.020;2023-01-28T00:16:05;99229.34;;;-1.36;91.07
28008;BME280;15333;50.010;20.020;2023-01-28T00:19:08;99222.25;;;-1.33;90.60
28008;BME280;15333;50.010;20.020;2023-01-28T00:22:09;99229.28;;;-1.35;90.82
28008;BME280;15333;50.010;20.020;2023-01-28T00:25:10;99227.53;;;-1.34;90.91
28008;BME280;15333;50.010;20.020;2023-01-28T00:28:11;99235.38;;;-1.33;91.41
28008;BME280;15333;50.010;20.020;2023-01-28T00:31:20;99226.59;;;-1.30;91.81
28008;BME280;15333;50.010;20.020;2023-01-28T00:34:21;99235.47;;;-1.36;91.96
28008;BME280;15333;50.010;20.020;2023-01-28T00:37:22;99241.63;;;-1.37;91.90
28008;BME280;15333;50.010;20.020;2023-01-28T00:40:23;99242.44;;;-1.35;91.33
28008;BME280;15333;50.010;20.020;2023-01-28T00:43:24;99238.91;;;-1.34;91.35
28008;BME280;15333;50.010;20.020;2023-01-28T00:46:25;99238.00;;;-1.33;92.27
28008;BME280;15333;50.010;20.020;2023-01-28T00:49:26;99238.00;;;-1.33;91.42
28008;BME280;15333;50.010;20.020;2023-01-28T00:52:27;99242.41;;;-1.33;92.26
28008;BME280;15333;50.010;20.020;2023-01-28T00:55:28;99241.47;;;-1.31;91.40
28008;BME280;15333;50.010;20.020;2023-01-28T00:58:29;99237.06;;;-1.29;91.44
28008;BME280;15333;50.010;20.020;2023-01-28T01:01:30;99235.34;;;-1.30;91.47
28008;BME280;15333;50.010;20.020;2023-01-28T01:04:31;99238.91;;;-1.34;92.44
28008;BME280;15333;50.010;20.020;2023-01-28T01:07:36;99239.69;;;-1.29;92.48
28008;BME280;15333;50.010;20.020;2023-01-28T01:10:43;99237.06;;;-1.29;93.83
28008;BME280;15333;50.010;20.020;2023-01-28T01:13:49;99237.06;;;-1.29;92.70
28008;BME280;15333;50.010;20.020;2023-01-28T01:16:51;99235.38;;;-1.33;92.03
28008;BME280;15333;50.010;20.020;2023-01-28T01:19:53;99243.38;;;-1.37;92.56
28008;BME280;15333;50.010;20.020;2023-01-28T01:22:55;99251.22;;;-1.36;93.62
28008;BME280;15333;50.010;20.020;2023-01-28T01:25:56;99248.75;;;-1.43;93.43
28008;BME280;15333;50.010;20.020;2023-01-28T01:28:57;99249.63;;;-1.43;93.14
28008;BME280;15333;50.010;20.020;2023-01-28T01:31:58;99247.88;;;-1.42;94.03
28008;BME280;15333;50.010;20.020;2023-01-28T01:34:59;99245.97;;;-1.36;93.82
28008;BME280;15333;50.010;20.020;2023-01-28T01:38:00;99253.00;;;-1.38;93.02
28008;BME280;15333;50.010;20.020;2023-01-28T01:41:02;99249.53;;;-1.40;93.32
28008;BME280;15333;50.010;20.020;2023-01-28T01:44:05;99258.38;;;-1.44;93.94
28008;BME280;15333;50.010;20.020;2023-01-28T01:47:07;99254.88;;;-1.43;93.83
28008;BME280;15333;50.010;20.020;2023-01-28T01:50:19;99258.38;;;-1.44;95.01
28008;BME280;15333;50.010;20.020;2023-01-28T01:53:25;99263.50;;;-1.38;94.94
28008;BME280;15333;50.010;20.020;2023-01-28T01:56:32;99261.81;;;-1.42;93.83
28008;BME280;15333;50.010;20.020;2023-01-28T01:59:36;99257.44;;;-1.41;93.49
28008;BME280;15333;50.010;20.020;2023-01-28T02:02:42;99254.78;;;-1.40;93.41
28008;BME280;15333;50.010;20.020;2023-01-28T02:05:44;99255.69;;;-1.41;93.57
28008;BME280;15333;50.010;20.020;2023-01-28T02:08:45;99262.78;;;-1.46;93.35
28008;BME280;15333;50.010;20.020;2023-01-28T02:11:46;99261.91;;;-1.45;92.86
28008;BME280;15333;50.010;20.020;2023-01-28T02:14:51;99260.22;;;-1.49;93.67
28008;BME280;15333;50.010;20.020;2023-01-28T02:17:55;99254.03;;;-1.46;94.75
28008;BME280;15333;50.010;20.020;2023-01-28T02:31:35;99264.50;;;-1.43;93.56
28008;BME280;15333;50.010;20.020;2023-01-28T02:34:42;99268.94;;;-1.47;93.54
28008;BME280;15333;50.010;20.020;2023-01-28T02:37:51;99261.94;;;-1.48;94.26
28008;BME280;15333;50.010;20.020;2023-01-28T02:41:01;99265.41;;;-1.46;94.11
28008;BME280;15333;50.010;20.020;2023-01-28T02:44:05;99271.56;;;-1.48;94.24
28008;BME280;15333;50.010;20.020;2023-01-28T02:47:10;99267.19;;;-1.48;94.83
28008;BME280;15333;50.010;20.020;2023-01-28T02:50:42;99256.78;;;-1.51;93.58
28008;BME280;15333;50.010;20.020;2023-01-28T02:54:00;99268.16;;;-1.52;93.64
28008;BME280;15333;50.010;20.020;2023-01-28T03:03:57;99269.88;;;-1.49;94.72
28008;BME280;15333;50.010;20.020;2023-01-28T03:07:01;99271.56;;;-1.48;95.06
28008;BME280;15333;50.010;20.020;2023-01-28T03:10:08;99275.91;;;-1.46;93.60
28008;BME280;15333;50.010;20.020;2023-01-28T03:13:09;99274.25;;;-1.50;94.00
28008;BME280;15333;50.010;20.020;2023-01-28T03:16:30;99267.28;;;-1.51;94.54
28008;BME280;15333;50.010;20.020;2023-01-28T03:19:52;99263.75;;;-1.50;93.59
28008;BME280;15333;50.010;20.020;2023-01-28T03:23:21;99268.94;;;-1.47;94.62
28008;BME280;15333;50.010;20.020;2023-01-28T03:26:57;99258.50;;;-1.50;94.48
28008;BME280;15333;50.010;20.020;2023-01-28T03:30:36;99268.25;;;-1.56;94.51
28008;BME280;15333;50.010;20.020;2023-01-28T03:34:09;99268.19;;;-1.53;94.30
28008;BME280;15333;50.010;20.020;2023-01-28T03:37:31;99266.44;;;-1.54;94.00
28008;BME280;15333;50.010;20.020;2023-01-28T03:41:02;99265.66;;;-1.58;94.60
28008;BME280;15333;50.010;20.020;2023-01-28T03:44:05;99262.94;;;-1.53;94.02
28008;BME280;15333;50.010;20.020;2023-01-28T03:47:27;99261.19;;;-1.54;94.94
28008;BME280;15333;50.010;20.020;2023-01-28T03:50:30;99269.91;;;-1.52;94.19
28008;BME280;15333;50.010;20.020;2023-01-28T03:53:34;99265.50;;;-1.50;94.98
28008;BME280;15333;50.010;20.020;2023-01-28T03:56:36;99271.69;;;-1.54;95.23
28008;BME280;15333;50.010;20.020;2023-01-28T03:59:37;99275.28;;;-1.57;94.79
28008;BME280;15333;50.010;20.020;2023-01-28T04:02:38;99280.53;;;-1.59;95.68
28008;BME280;15333;50.010;20.020;2023-01-28T04:05:42;99275.28;;;-1.59;94.54
28008;BME280;15333;50.010;20.020;2023-01-28T04:08:43;99281.28;;;-1.52;95.27
28008;BME280;15333;50.010;20.020;2023-01-28T04:12:14;99278.69;;;-1.53;96.01
28008;BME280;15333;50.010;20.020;2023-01-28T04:15:21;99281.28;;;-1.52;95.08
28008;BME280;15333;50.010;20.020;2023-01-28T04:18:23;99276.88;;;-1.50;95.55
28008;BME280;15333;50.010;20.020;2023-01-28T04:21:29;99279.56;;;-1.53;93.80
28008;BME280;15333;50.010;20.020;2023-01-28T04:24:30;99281.28;;;-1.52;94.44
28008;BME280;15333;50.010;20.020;2023-01-28T04:27:31;99283.06;;;-1.54;94.39
28008;BME280;15333;50.010;20.020;2023-01-28T04:30:39;99290.00;;;-1.50;94.97
28008;BME280;15333;50.010;20.020;2023-01-28T04:33:47;99288.16;;;-1.45;94.00
28008;BME280;15333;50.010;20.020;2023-01-28T04:37:07;99290.00;;;-1.50;94.98
28008;BME280;15333;50.010;20.020;2023-01-28T04:40:39;99286.53;;;-1.52;94.67
28008;BME280;15333;50.010;20.020;2023-01-28T04:43:57;99293.44;;;-1.48;95.77
28008;BME280;15333;50.010;20.020;2023-01-28T04:47:12;99298.69;;;-1.48;94.72
28008;BME280;15333;50.010;20.020;2023-01-28T04:50:44;99304.00;;;-1.51;93.86
28008;BME280;15333;50.010;20.020;2023-01-28T04:54:04;99293.53;;;-1.52;95.16
28008;BME280;15333;50.010;20.020;2023-01-28T04:57:07;99291.72;;;-1.49;93.87
28008;BME280;15333;50.010;20.020;2023-01-28T05:00:10;99296.03;;;-1.46;94.26
28008;BME280;15333;50.010;20.020;2023-01-28T05:03:12;99293.44;;;-1.48;95.16
28008;BME280;15333;50.010;20.020;2023-01-28T05:06:13;99296.97;;;-1.49;94.25
28008;BME280;15333;50.010;20.020;2023-01-28T05:09:16;99305.78;;;-1.53;93.53
28008;BME280;15333;50.010;20.020;2023-01-28T05:12:18;99305.63;;;-1.44;94.17
28008;BME280;15333;50.010;20.020;2023-01-28T05:15:21;99300.31;;;-1.41;94.14
28008;BME280;15333;50.010;20.020;2023-01-28T05:18:23;99305.63;;;-1.44;95.05
28008;BME280;15333;50.010;20.020;2023-01-28T05:21:36;99316.94;;;-1.42;94.89
28008;BME280;15333;50.010;20.020;2023-01-28T05:24:43;99320.41;;;-1.40;93.57
28008;BME280;15333;50.010;20.020;2023-01-28T05:27:51;99321.31;;;-1.41;93.30
28008;BME280;15333;50.010;20.020;2023-01-28T05:30:52;99327.53;;;-1.46;92.24
28008;BME280;15333;50.010;20.020;2023-01-28T05:33:53;99323.19;;;-1.49;92.90
28008;BME280;15333;50.010;20.020;2023-01-28T05:36:54;99322.28;;;-1.46;91.85
28008;BME280;15333;50.010;20.020;2023-01-28T05:40:05;99319.63;;;-1.45;92.74
28008;BME280;15333;50.010;20.020;2023-01-28T05:43:06;99326.63;;;-1.44;92.84
28008;BME280;15333;50.010;20.020;2023-01-28T05:46:19;99324.88;;;-1.45;93.56
28008;BME280;15333;50.010;20.020;2023-01-28T05:49:43;99328.34;;;-1.43;92.62
28008;BME280;15333;50.010;20.020;2023-01-28T05:53:07;99324.94;;;-1.48;91.90
28008;BME280;15333;50.010;20.020;2023-01-28T05:56:10;99331.88;;;-1.44;92.95
28008;BME280;15333;50.010;20.020;2023-01-28T05:59:12;99334.53;;;-1.47;91.62
28008;BME280;15333;50.010;20.020;2023-01-28T06:02:16;99333.66;;;-1.46;91.92
28008;BME280;15333;50.010;20.020;2023-01-28T06:05:17;99339.88;;;-1.50;92.21
28008;BME280;15333;50.010;20.020;2023-01-28T06:08:18;99345.13;;;-1.50;91.35
28008;BME280;15333;50.010;20.020;2023-01-28T06:11:19;99351.19;;;-1.48;91.32
28008;BME280;15333;50.010;20.020;2023-01-28T06:14:22;99352.16;;;-1.52;91.23
28008;BME280;15333;50.010;20.020;2023-01-28T06:17:40;99352.25;;;-1.56;90.61
28008;BME280;15333;50.010;20.020;2023-01-28T06:20:49;99367.13;;;-1.57;90.26
28008;BME280;15333;50.010;20.020;2023-01-28T06:23:50;99368.81;;;-1.56;90.47
28008;BME280;15333;50.010;20.020;2023-01-28T06:26:51;99369.81;;;-1.63;91.57
28008;BME280;15333;50.010;20.020;2023-01-28T06:29:52;99379.38;;;-1.59;91.18
28008;BME280;15333;50.010;20.020;2023-01-28T06:32:54;99378.47;;;-1.56;91.67
28008;BME280;15333;50.010;20.020;2023-01-28T06:35:55;99377.53;;;-1.54;91.65
28008;BME280;15333;50.010;20.020;2023-01-28T06:38:56;99384.50;;;-1.51;90.51
28008;BME280;15333;50.010;20.020;2023-01-28T06:41:57;99388.00;;;-1.51;91.27
28008;BME280;15333;50.010;20.020;2023-01-28T06:44:58;99385.38;;;-1.51;92.18
28008;BME280;15333;50.010;20.020;2023-01-28T06:47:58;99387.06;;;-1.48;91.31
28008;BME280;15333;50.010;20.020;2023-01-28T06:50:59;99394.00;;;-1.44;90.90
28008;BME280;15333;50.010;20.020;2023-01-28T06:54:00;99393.06;;;-1.42;91.33
28008;BME280;15333;50.010;20.020;2023-01-28T06:57:01;99392.97;;;-1.36;92.82
28008;BME280;15333;50.010;20.020;2023-01-28T07:00:02;99401.78;;;-1.40;92.60
28008;BME280;15333;50.010;20.020;2023-01-28T07:03:04;99400.03;;;-1.41;92.84
28008;BME280;15333;50.010;20.020;2023-01-28T07:06:05;99401.75;;;-1.37;92.32
28008;BME280;15333;50.010;20.020;2023-01-28T07:09:06;99406.88;;;-1.31;92.85
28008;BME280;15333;50.010;20.020;2023-01-28T07:12:07;99413.91;;;-1.33;91.19
28008;BME280;15333;50.010;20.020;2023-01-28T07:15:08;99412.00;;;-1.25;90.74
28008;BME280;15333;50.010;20.020;2023-01-28T07:18:10;99413.78;;;-1.25;90.20
28008;BME280;15333;50.010;20.020;2023-01-28T07:21:11;99412.91;;;-1.26;90.11
28008;BME280;15333;50.010;20.020;2023-01-28T07:24:12;99412.91;;;-1.26;90.95
28008;BME280;15333;50.010;20.020;2023-01-28T07:27:13;99415.50;;;-1.23;90.14
28008;BME280;15333;50.010;20.020;2023-01-28T07:30:15;99419.03;;;-1.27;90.04
28008;BME280;15333;50.010;20.020;2023-01-28T07:33:16;99436.38;;;-1.16;91.88
28008;BME280;15333;50.010;20.020;2023-01-28T07:36:17;99438.16;;;-1.19;91.61
28008;BME280;15333;50.010;20.020;2023-01-28T07:39:18;99445.09;;;-1.14;91.20
28008;BME280;15333;50.010;20.020;2023-01-28T07:42:19;99430.13;;;-1.11;89.60
28008;BME280;15333;50.010;20.020;2023-01-28T07:45:24;99438.91;;;-1.12;88.72
28008;BME280;15333;50.010;20.020;2023-01-28T07:48:25;99433.88;;;-1.23;88.90
28008;BME280;15333;50.010;20.020;2023-01-28T07:51:26;99431.13;;;-1.16;89.24
28008;BME280;15333;50.010;20.020;2023-01-28T07:54:27;99427.78;;;-1.25;88.80
28008;BME280;15333;50.010;20.020;2023-01-28T07:57:28;99438.31;;;-1.28;88.70
28008;BME280;15333;50.010;20.020;2023-01-28T08:00:31;99431.28;;;-1.26;87.29
28008;BME280;15333;50.010;20.020;2023-01-28T08:03:33;99432.16;;;-1.27;87.24
28008;BME280;15333;50.010;20.020;2023-01-28T08:06:34;99432.75;;;-1.09;87.83
28008;BME280;15333;50.010;20.020;2023-01-28T08:09:37;99430.09;;;-1.08;88.18
28008;BME280;15333;50.010;20.020;2023-01-28T08:12:39;99437.88;;;-1.03;87.71
28008;BME280;15333;50.010;20.020;2023-01-28T08:15:40;99438.00;;;-1.09;86.69
28008;BME280;15333;50.010;20.020;2023-01-28T08:18:41;99439.88;;;-1.17;85.39
28008;BME280;15333;50.010;20.020;2023-01-28T08:21:42;99446.75;;;-1.10;86.40
28008;BME280;15333;50.010;20.020;2023-01-28T08:24:42;99448.66;;;-1.19;84.04
28008;BME280;15333;50.010;20.020;2023-01-28T08:27:44;99450.41;;;-1.19;84.17
28008;BME280;15333;50.010;20.020;2023-01-28T08:30:45;99444.34;;;-1.21;84.76
28008;BME280;15333;50.010;20.020;2023-01-28T08:33:46;99452.06;;;-1.13;84.32
28008;BME280;15333;50.010;20.020;2023-01-28T08:36:47;99459.16;;;-1.19;84.63
28008;BME280;15333;50.010;20.020;2023-01-28T08:39:48;99457.50;;;-1.23;84.16
28008;BME280;15333;50.010;20.020;2023-01-28T08:42:51;99454.84;;;-1.21;83.97
28008;BME280;15333;50.010;20.020;2023-01-28T08:45:52;99458.25;;;-1.16;85.18
28008;BME280;15333;50.010;20.020;2023-01-28T08:48:53;99459.16;;;-1.19;84.75
28008;BME280;15333;50.010;20.020;2023-01-28T08:51:54;99467.03;;;-1.17;84.90
28008;BME280;15333;50.010;20.020;2023-01-28T08:54:55;99469.75;;;-1.22;84.91
28008;BME280;15333;50.010;20.020;2023-01-28T08:57:56;99466.94;;;-1.12;84.12
28008;BME280;15333;50.010;20.020;2023-01-28T09:00:57;99466.72;;;-1.00;83.96
28008;BME280;15333;50.010;20.020;2023-01-28T09:03:58;99470.28;;;-1.04;83.72
28008;BME280;15333;50.010;20.020;2023-01-28T09:06:59;99479.91;;;-1.03;84.60
28008;BME280;15333;50.010;20.020;2023-01-28T09:10:00;99478.06;;;-0.98;84.17
28008;BME280;15333;50.010;20.020;2023-01-28T09:13:10;99471.06;;;-0.99;84.61
28008;BME280;15333;50.010;20.020;2023-01-28T09:16:11;99470.28;;;-1.04;85.09
28008;BME280;15333;50.010;20.020;2023-01-28T09:19:12;99472.75;;;-0.95;83.78
28008;BME280;15333;50.010;20.020;2023-01-28T09:22:13;99471.03;;;-0.96;84.54
28008;BME280;15333;50.010;20.020;2023-01-28T09:25:14;99472.75;;;-0.95;83.57
28008;BME280;15333;50.010;20.020;2023-01-28T09:28:15;99474.41;;;-0.91;82.85
28008;BME280;15333;50.010;20.020;2023-01-28T09:31:16;99470.09;;;-0.94;82.55
28008;BME280;15333;50.010;20.020;2023-01-28T09:34:17;99469.03;;;-0.85;83.79
28008;BME280;15333;50.010;20.020;2023-01-28T09:37:18;99472.53;;;-0.83;83.83
28008;BME280;15333;50.010;20.020;2023-01-28T09:40:24;99481.16;;;-0.78;81.80
28008;BME280;15333;50.010;20.020;2023-01-28T09:46:34;99469.66;;;-0.71;81.98
28008;BME280;15333;50.010;20.020;2023-01-28T09:49:39;99474.09;;;-0.73;82.37
28008;BME280;15333;50.010;20.020;2023-01-28T09:52:43;99465.34;;;-0.75;82.22
28008;BME280;15333;50.010;20.020;2023-01-28T09:58:50;99472.22;;;-0.68;82.65
28008;BME280;15333;50.010;20.020;2023-01-28T10:08:55;99464.16;;;-0.57;82.38
28008;BME280;15333;50.010;20.020;2023-01-28T10:21:51;99463.81;;;-0.42;82.42
28008;BME280;15333;50.010;20.020;2023-01-28T10:24:56;99456.72;;;-0.37;81.77
28008;BME280;15333;50.010;20.020;2023-01-28T10:28:00;99460.97;;;-0.31;81.54
28008;BME280;15333;50.010;20.020;2023-01-28T10:31:01;99457.69;;;-0.43;81.98
28008;BME280;15333;50.010;20.020;2023-01-28T10:34:02;99461.03;;;-0.34;81.94
28008;BME280;15333;50.010;20.020;2023-01-28T10:37:04;99459.09;;;-0.26;81.98
28008;BME280;15333;50.010;20.020;2023-01-28T10:40:11;99453.19;;;-0.36;81.23
28008;BME280;15333;50.010;20.020;2023-01-28T10:43:23;99452.06;;;-0.24;80.82
28008;BME280;15333;50.010;20.020;2023-01-28T10:46:31;99449.91;;;-0.07;81.16
28008;BME280;15333;50.010;20.020;2023-01-28T10:49:37;99456.84;;;-0.03;80.33
28008;BME280;15333;50.010;20.020;2023-01-28T10:53:00;99451.31;;;-0.31;79.28
28008;BME280;15333;50.010;20.020;2023-01-28T10:56:04;99450.38;;;-0.28;79.61
28008;BME280;15333;50.010;20.020;2023-01-28T10:59:25;99445.31;;;-0.36;80.77
28008;BME280;15333;50.010;20.020;2023-01-28T11:02:33;99454.09;;;-0.38;81.44
28008;BME280;15333;50.010;20.020;2023-01-28T11:05:36;99454.38;;;-0.51;81.44
28008;BME280;15333;50.010;20.020;2023-01-28T11:08:43;99461.34;;;-0.50;82.24
28008;BME280;15333;50.010;20.020;2023-01-28T11:11:44;99459.66;;;-0.52;82.04
28008;BME280;15333;50.010;20.020;2023-01-28T11:14:58;99449.16;;;-0.54;82.10
28008;BME280;15333;50.010;20.020;2023-01-28T11:18:01;99452.63;;;-0.52;82.38
28008;BME280;15333;50.010;20.020;2023-01-28T11:21:06;99457.03;;;-0.52;82.45
28008;BME280;15333;50.010;20.020;2023-01-28T11:24:20;99446.56;;;-0.55;81.90
28008;BME280;15333;50.010;20.020;2023-01-28T11:27:28;99440.31;;;-0.50;82.05
28008;BME280;15333;50.010;20.020;2023-01-28T11:30:32;99443.03;;;-0.54;82.99
28008;BME280;15333;50.010;20.020;2023-01-28T11:33:57;99435.00;;;-0.47;82.71
28008;BME280;15333;50.010;20.020;2023-01-28T11:37:09;99434.94;;;-0.44;81.66
28008;BME280;15333;50.010;20.020;2023-01-28T11:40:17;99433.13;;;-0.42;81.28
28008;BME280;15333;50.010;20.020;2023-01-28T11:43:22;99438.47;;;-0.88;82.49
28008;BME280;15333;50.010;20.020;2023-01-28T11:53:17;99424.75;;;-0.19;80.38
28008;BME280;15333;50.010;20.020;2023-01-28T12:05:54;99437.28;;;-0.73;82.56
28008;BME280;15333;50.010;20.020;2023-01-28T12:09:16;99432.34;;;-0.45;82.63
28008;BME280;15333;50.010;20.020;2023-01-28T12:12:51;99428.72;;;-0.40;81.99
28008;BME280;15333;50.010;20.020;2023-01-28T12:22:24;99437.63;;;-0.91;85.87
28008;BME280;15333;50.010;20.020;2023-01-28T12:25:56;99429.16;;;-1.05;85.49
28008;BME280;15333;50.010;20.020;2023-01-28T12:32:36;99438.59;;;-0.94;84.83
28008;BME280;15333;50.010;20.020;2023-01-28T12:35:59;99433.63;;;-1.09;86.01
28008;BME280;15333;50.010;20.020;2023-01-28T12:49:26;99431.91;;;-0.67;84.71
28008;BME280;15333;50.010;20.020;2023-01-28T12:52:34;99435.38;;;-0.65;85.23
28008;BME280;15333;50.010;20.020;2023-01-28T12:55:45;99439.50;;;-0.96;85.94
28008;BME280;15333;50.010;20.020;2023-01-28T13:05:16;99443.00;;;-0.97;84.80
28008;BME280;15333;50.010;20.020;2023-01-28T13:08:23;99437.41;;;-0.79;86.13
28008;BME280;15333;50.010;20.020;2023-01-28T13:11:32;99442.72;;;-0.82;85.38
28008;BME280;15333;50.010;20.020;2023-01-28T13:14:34;99446.13;;;-0.77;85.00
28008;BME280;15333;50.010;20.020;2023-01-28T13:17:35;99444.59;;;-0.87;84.48
28008;BME280;15333;50.010;20.020;2023-01-28T13:20:49;99455.75;;;-0.77;84.14
28008;BME280;15333;50.010;20.020;2023-01-28T13:27:22;99458.44;;;-0.79;83.07
28008;BME280;15333;50.010;20.020;2023-01-28T13:33:35;99458.53;;;-0.85;83.40
28008;BME280;15333;50.010;20.020;2023-01-28T13:36:44;99460.09;;;-0.75;83.84
28008;BME280;15333;50.010;20.020;2023-01-28T13:39:59;99449.59;;;-0.75;83.13
28008;BME280;15333;50.010;20.020;2023-01-28T13:43:04;99458.50;;;-0.82;82.39
28008;BME280;15333;50.010;20.020;2023-01-28T13:46:24;99456.50;;;-0.71;81.01
28008;BME280;15333;50.010;20.020;2023-01-28T13:49:33;99465.59;;;-0.87;82.25
28008;BME280;15333;50.010;20.020;2023-01-28T13:53:02;99463.75;;;-0.82;81.59
28008;BME280;15333;50.010;20.020;2023-01-28T13:56:09;99472.69;;;-0.92;81.34
28008;BME280;15333;50.010;20.020;2023-01-28T14:06:15;99474.41;;;-0.91;81.94
28008;BME280;15333;50.010;20.020;2023-01-28T14:13:09;99476.09;;;-0.87;82.46
28008;BME280;15333;50.010;20.020;2023-01-28T14:19:31;99482.91;;;-0.77;82.04
28008;BME280;15333;50.010;20.020;2023-01-28T14:22:33;99482.53;;;-0.57;80.08
28008;BME280;15333;50.010;20.020;2023-01-28T14:32:33;99483.84;;;-0.80;81.34
28008;BME280;15333;50.010;20.020;2023-01-28T14:35:38;99488.34;;;-0.86;82.30
28008;BME280;15333;50.010;20.020;2023-01-28T14:38:41;99493.25;;;-0.68;82.78
28008;BME280;15333;50.010;20.020;2023-01-28T14:41:47;99492.22;;;-0.59;81.40
28008;BME280;15333;50.010;20.020;2023-01-28T14:52:08;99496.31;;;-0.45;80.50
28008;BME280;15333;50.010;20.020;2023-01-28T14:55:44;99488.22;;;-0.35;81.48
28008;BME280;15333;50.010;20.020;2023-01-28T14:58:56;99494.50;;;-0.43;80.65
28008;BME280;15333;50.010;20.020;2023-01-28T15:01:59;99494.34;;;-0.80;81.68
28008;BME280;15333;50.010;20.020;2023-01-28T15:05:09;99498.63;;;-0.74;83.63
28008;BME280;15333;50.010;20.020;2023-01-28T15:08:23;99512.91;;;-0.87;85.46
28008;BME280;15333;50.010;20.020;2023-01-28T15:11:25;99506.81;;;-0.91;85.14
28008;BME280;15333;50.010;20.020;2023-01-28T15:14:29;99513.56;;;-0.77;85.53
28008;BME280;15333;50.010;20.020;2023-01-28T15:17:31;99514.66;;;-0.89;86.78
28008;BME280;15333;50.010;20.020;2023-01-28T15:20:32;99520.78;;;-0.87;87.58
28008;BME280;15333;50.010;20.020;2023-01-28T15:23:35;99512.94;;;-0.90;87.02
28008;BME280;15333;50.010;20.020;2023-01-28T15:26:37;99528.69;;;-0.90;86.34
28008;BME280;15333;50.010;20.020;2023-01-28T15:29:38;99516.41;;;-0.88;87.46
28008;BME280;15333;50.010;20.020;2023-01-28T15:32:39;99519.81;;;-0.83;87.73
28008;BME280;15333;50.010;20.020;2023-01-28T15:35:47;99524.00;;;-0.71;86.51
28008;BME280;15333;50.010;20.020;2023-01-28T15:38:48;99525.03;;;-0.80;87.01
28008;BME280;15333;50.010;20.020;2023-01-28T15:42:04;99527.50;;;-0.72;88.06
28008;BME280;15333;50.010;20.020;2023-01-28T15:45:17;99537.19;;;-0.76;89.07
28008;BME280;15333;50.010;20.020;2023-01-28T15:48:18;99534.56;;;-0.76;89.39
28008;BME280;15333;50.010;20.020;2023-01-28T15:51:23;99531.72;;;-0.64;88.73
28008;BME280;15333;50.010;20.020;2023-01-28T15:54:25;99539.81;;;-0.76;89.38
28008;BME280;15333;50.010;20.020;2023-01-28T15:57:31;99537.31;;;-0.82;89.43
28008;BME280;15333;50.010;20.020;2023-01-28T16:00:33;99534.50;;;-0.71;88.74
28008;BME280;15333;50.010;20.020;2023-01-28T16:03:41;99538.97;;;-0.78;90.33
28008;BME280;15333;50.010;20.020;2023-01-28T16:06:43;99541.66;;;-0.80;89.76
28008;BME280;15333;50.010;20.020;2023-01-28T16:09:50;99538.97;;;-0.78;90.14
28008;BME280;15333;50.010;20.020;2023-01-28T16:12:55;99540.72;;;-0.77;90.61
28008;BME280;15333;50.010;20.020;2023-01-28T16:16:02;99539.66;;;-0.67;90.53
28008;BME280;15333;50.010;20.020;2023-01-28T16:19:05;99542.44;;;-0.76;89.36
28008;BME280;15333;50.010;20.020;2023-01-28T16:22:15;99535.41;;;-0.74;90.42
28008;BME280;15333;50.010;20.020;2023-01-28T16:25:23;99546.84;;;-0.78;90.70
28008;BME280;15333;50.010;20.020;2023-01-28T16:28:25;99540.56;;;-0.68;90.58
28008;BME280;15333;50.010;20.020;2023-01-28T16:31:26;99551.06;;;-0.68;89.95
28008;BME280;15333;50.010;20.020;2023-01-28T16:34:27;99546.47;;;-0.57;89.87
28008;BME280;15333;50.010;20.020;2023-01-28T16:37:28;99544.06;;;-0.69;90.12
28008;BME280;15333;50.010;20.020;2023-01-28T16:40:29;99543.31;;;-0.74;89.82
28008;BME280;15333;50.010;20.020;2023-01-28T16:43:31;99540.69;;;-0.74;90.99
28008;BME280;15333;50.010;20.020;2023-01-28T16:46:32;99545.84;;;-0.71;91.96
28008;BME280;15333;50.010;20.020;2023-01-28T16:49:33;99554.75;;;-0.78;92.27
28008;BME280;15333;50.010;20.020;2023-01-28T16:52:34;99560.13;;;-0.84;93.87
28008;BME280;15333;50.010;20.020;2023-01-28T16:55:35;99554.94;;;-0.87;93.81
28008;BME280;15333;50.010;20.020;2023-01-28T16:58:36;99561.84;;;-0.83;93.87
28008;BME280;15333;50.010;20.020;2023-01-28T17:01:37;99562.00;;;-0.92;94.00
28008;BME280;15333;50.010;20.020;2023-01-28T17:04:38;99560.97;;;-0.84;94.86
28008;BME280;15333;50.010;20.020;2023-01-28T17:07:39;99567.22;;;-0.89;93.98
28008;BME280;15333;50.010;20.020;2023-01-28T17:10:40;99572.50;;;-0.92;96.35
28008;BME280;15333;50.010;20.020;2023-01-28T17:13:41;99569.88;;;-0.92;96.28
28008;BME280;15333;50.010;20.020;2023-01-28T17:16:42;99567.19;;;-0.86;96.00
28008;BME280;15333;50.010;20.020;2023-01-28T17:19:43;99570.63;;;-0.84;97.46
28008;BME280;15333;50.010;20.020;2023-01-28T17:22:44;99566.34;;;-0.90;97.81
28008;BME280;15333;50.010;20.020;2023-01-28T17:25:45;99568.03;;;-0.86;97.04
28008;BME280;15333;50.010;20.020;2023-01-28T17:28:52;99561.81;;;-0.80;98.32
28008;BME280;15333;50.010;20.020;2023-01-28T17:31:53;99568.00;;;-0.84;98.02
28008;BME280;15333;50.010;20.020;2023-01-28T17:34:54;99575.00;;;-0.85;98.58
28008;BME280;15333;50.010;20.020;2023-01-28T17:37:55;99562.81;;;-0.87;98.20
28008;BME280;15333;50.010;20.020;2023-01-28T17:41:05;99567.22;;;-0.89;98.34
28008;BME280;15333;50.010;20.020;2023-01-28T17:44:10;99574.09;;;-0.82;99.07
28008;BME280;15333;50.010;20.020;2023-01-28T17:47:11;99571.50;;;-0.85;100.00
28008;BME280;15333;50.010;20.020;2023-01-28T17:50:12;99577.69;;;-0.86;100.00
28008;BME280;15333;50.010;20.020;2023-01-28T17:53:13;99574.75;;;-0.71;100.00
28008;BME280;15333;50.010;20.020;2023-01-28T17:56:25;99579.31;;;-0.79;100.00
28008;BME280;15333;50.010;20.020;2023-01-28T17:59:27;99582.06;;;-0.87;100.00
28008;BME280;15333;50.010;20.020;2023-01-28T18:02:28;99579.31;;;-0.79;100.00
28008;BME280;15333;50.010;20.020;2023-01-28T18:05:29;99582.03;;;-0.85;100.00
28008;BME280;15333;50.010;20.020;2023-01-28T18:08:30;99588.03;;;-0.77;100.00